createdAt,value
2019-06-20T00:00:59.349Z,99953.82
2019-06-20T00:03:23.821Z,99963.14
2019-06-20T00:06:04.276Z,99968.69
2019-06-20T00:08:28.757Z,99969.74
2019-06-20T00:13:52.781Z,99944.05
2019-06-20T00:16:17.292Z,99935.02
2019-06-20T00:18:41.780Z,99925.84
2019-06-20T00:21:06.263Z,99926.58
2019-06-20T00:23:30.748Z,99930.50
2019-06-20T00:25:55.229Z,99924.13
2019-06-20T00:28:25.023Z,99925.02
2019-06-20T00:30:49.560Z,99913.64
2019-06-20T00:33:14.028Z,99906.09
2019-06-20T00:35:38.538Z,99888.18
2019-06-20T00:38:03.173Z,99885.19
2019-06-20T00:40:27.648Z,99889.50
2019-06-20T00:42:52.519Z,99898.47
2019-06-20T00:45:42.429Z,99912.53
2019-06-20T00:48:06.903Z,99919.59
2019-06-20T00:50:31.390Z,99932.88
2019-06-20T00:52:55.870Z,99934.93
2019-06-20T00:55:20.359Z,99936.52
2019-06-20T00:57:44.830Z,99957.17
2019-06-20T01:00:30.123Z,99949.88
2019-06-20T01:02:54.666Z,99952.88
2019-06-20T01:05:19.325Z,99950.69
2019-06-20T01:07:43.779Z,99940.19
2019-06-20T01:10:29.080Z,99952.47
2019-06-20T01:12:53.534Z,99958.13
2019-06-20T01:18:24.236Z,99953.80
2019-06-20T01:20:48.807Z,99941.25
2019-06-20T01:23:13.348Z,99947.98
2019-06-20T01:25:58.610Z,99935.98
2019-06-20T01:28:23.085Z,99943.05
2019-06-20T01:30:48.074Z,99953.70
2019-06-20T01:33:12.701Z,99962.09
2019-06-20T01:35:37.224Z,99967.12
2019-06-20T01:40:41.556Z,99959.15
2019-06-20T01:43:06.037Z,99962.05
2019-06-20T01:45:30.648Z,99952.52
2019-06-20T01:47:55.140Z,99945.19
2019-06-20T01:50:19.674Z,99955.20
2019-06-20T01:53:03.510Z,99959.44
2019-06-20T01:55:27.971Z,99928.39
2019-06-20T01:57:52.458Z,99950.49
2019-06-20T02:00:32.865Z,99933.58
2019-06-20T02:02:57.360Z,99925.45
2019-06-20T02:05:21.884Z,99916.78
2019-06-20T02:07:46.353Z,99914.70
2019-06-20T02:10:10.972Z,99899.69
2019-06-20T02:12:35.438Z,99893.41
2019-06-20T02:14:59.911Z,99875.94
2019-06-20T02:17:24.388Z,99866.08
2019-06-20T02:19:48.882Z,99861.81
2019-06-20T02:22:13.436Z,99867.94
2019-06-20T02:24:37.927Z,99862.52
2019-06-20T02:27:02.533Z,99855.70
2019-06-20T02:29:27.031Z,99860.51
2019-06-20T02:31:51.504Z,99871.75
2019-06-20T02:34:16.069Z,99862.16
2019-06-20T02:36:40.570Z,99867.24
2019-06-20T02:39:25.851Z,99855.83
2019-06-20T02:41:50.300Z,99853.47
2019-06-20T02:44:29.394Z,99846.30
2019-06-20T02:46:47.031Z,99841.27
2019-06-20T02:49:11.592Z,99849.08
2019-06-20T02:51:36.076Z,99850.54
2019-06-20T02:54:00.560Z,99860.67
2019-06-20T02:56:25.099Z,99872.39
2019-06-20T02:58:49.669Z,99870.78
2019-06-20T03:01:14.241Z,99882.41
2019-06-20T03:03:38.783Z,99885.22
2019-06-20T03:06:03.320Z,99890.75
2019-06-20T03:08:27.965Z,99901.84
2019-06-20T03:11:11.799Z,99903.39
2019-06-20T03:13:36.277Z,99916.22
2019-06-20T03:16:00.783Z,99911.07
2019-06-20T03:18:25.280Z,99929.27
2019-06-20T03:20:49.795Z,99932.34
2019-06-20T03:23:14.420Z,99941.30
2019-06-20T03:25:38.957Z,99950.98
2019-06-20T03:28:03.598Z,99951.81
2019-06-20T03:30:28.207Z,99948.75
2019-06-20T03:32:52.698Z,99947.44
2019-06-20T03:35:17.286Z,99946.17
2019-06-20T03:37:41.837Z,99940.03
2019-06-20T03:40:06.635Z,99946.44
2019-06-20T03:42:31.126Z,99956.41
2019-06-20T03:45:02.089Z,99956.42
2019-06-20T03:47:43.836Z,99969.94
2019-06-20T03:50:08.631Z,99982.29
2019-06-20T03:52:33.127Z,99976.07
2019-06-20T03:54:57.656Z,99978.89
2019-06-20T03:57:22.183Z,99985.81
2019-06-20T04:00:07.468Z,99977.05
2019-06-20T04:02:32.056Z,99986.48
2019-06-20T04:04:56.523Z,99972.70
2019-06-20T04:07:20.994Z,99970.22
2019-06-20T04:09:45.469Z,99957.84
2019-06-20T04:12:09.961Z,99952.28
2019-06-20T04:14:34.456Z,99955.35
2019-06-20T04:16:58.923Z,99957.33
2019-06-20T04:19:30.443Z,99964.51
2019-06-20T04:21:54.906Z,99959.46
2019-06-20T04:24:19.408Z,99960.02
2019-06-20T04:26:43.873Z,99952.84
2019-06-20T04:29:08.374Z,99966.68
2019-06-20T04:31:32.838Z,99975.36
2019-06-20T04:33:57.332Z,99976.65
2019-06-20T04:36:21.814Z,99962.81
2019-06-20T04:39:15.612Z,99958.97
2019-06-20T04:41:29.015Z,99967.40
2019-06-20T04:43:53.501Z,99971.52
2019-06-20T04:46:37.089Z,99975.86
2019-06-20T04:49:01.624Z,99975.85
2019-06-20T04:51:26.059Z,99987.41
2019-06-20T04:53:50.545Z,99994.78
2019-06-20T04:56:20.432Z,100006.06
2019-06-20T04:58:44.936Z,100017.37
2019-06-20T05:01:09.393Z,100010.21
2019-06-20T05:03:33.906Z,100019.16
2019-06-20T05:05:58.463Z,100028.39
2019-06-20T05:08:22.934Z,100027.88
2019-06-20T05:10:47.441Z,100037.09
2019-06-20T05:13:11.908Z,100039.88
2019-06-20T05:15:51.578Z,100044.20
2019-06-20T05:18:08.275Z,100048.14
2019-06-20T05:23:36.723Z,100059.12
2019-06-20T05:26:24.867Z,100064.77
2019-06-20T05:28:49.342Z,100068.60
2019-06-20T05:31:19.876Z,100057.84
2019-06-20T05:33:44.355Z,100064.23
2019-06-20T05:36:08.911Z,100059.78
2019-06-20T05:41:43.846Z,100076.95
2019-06-20T05:44:24.262Z,100072.67
2019-06-20T05:46:48.752Z,100066.17
2019-06-20T05:49:13.228Z,100066.45
2019-06-20T05:51:39.850Z,100069.80
2019-06-20T05:54:09.172Z,100070.58
2019-06-20T05:59:27.798Z,100080.27
2019-06-20T06:01:56.115Z,100068.61
2019-06-20T06:04:40.163Z,100063.52
2019-06-20T06:07:05.190Z,100068.33
2019-06-20T06:09:36.838Z,100070.15
2019-06-20T06:12:01.332Z,100071.03
2019-06-20T06:14:25.876Z,100070.39
2019-06-20T06:16:50.380Z,100081.42
2019-06-20T06:19:14.850Z,100082.20
2019-06-20T06:21:39.402Z,100084.23
2019-06-20T06:24:04.060Z,100094.50
2019-06-20T06:26:46.507Z,100097.59
2019-06-20T06:29:11.039Z,100094.25
2019-06-20T06:31:35.544Z,100090.42
2019-06-20T06:36:36.353Z,100096.29
2019-06-20T06:39:00.820Z,100110.61
2019-06-20T06:41:25.386Z,100098.05
2019-06-20T06:43:49.874Z,100110.12
2019-06-20T06:46:43.629Z,100103.22
2019-06-20T06:48:57.051Z,100093.48
2019-06-20T06:51:38.287Z,100105.31
2019-06-20T06:54:02.960Z,100108.61
2019-06-20T06:56:27.582Z,100109.64
2019-06-20T06:58:52.185Z,100105.03
2019-06-20T07:01:16.776Z,100116.55
2019-06-20T07:03:41.430Z,100115.52
2019-06-20T07:06:05.996Z,100117.88
2019-06-20T07:08:30.464Z,100128.13
2019-06-20T07:10:55.050Z,100127.61
2019-06-20T07:13:36.008Z,100131.98
2019-06-20T07:16:00.511Z,100126.06
2019-06-20T07:18:24.984Z,100131.58
2019-06-20T07:20:49.533Z,100139.02
2019-06-20T07:23:14.094Z,100126.50
2019-06-20T07:25:38.647Z,100134.84
2019-06-20T07:28:03.219Z,100134.88
2019-06-20T07:30:27.758Z,100134.93
2019-06-20T07:32:52.256Z,100137.27
2019-06-20T07:35:16.976Z,100140.14
2019-06-20T07:37:41.598Z,100146.06
2019-06-20T07:40:26.883Z,100142.22
2019-06-20T07:42:51.375Z,100136.84
2019-06-20T07:45:36.638Z,100139.41
2019-06-20T07:48:01.205Z,100142.42
2019-06-20T07:50:25.823Z,100137.23
2019-06-20T07:53:01.334Z,100136.23
2019-06-20T07:55:22.485Z,100133.92
2019-06-20T07:57:47.108Z,100135.77
2019-06-20T08:00:32.367Z,100134.59
2019-06-20T08:02:56.878Z,100138.20
2019-06-20T08:05:21.715Z,100138.70
2019-06-20T08:07:46.269Z,100133.05
2019-06-20T08:13:09.480Z,100135.50
2019-06-20T08:15:34.138Z,100134.73
2019-06-20T08:17:58.682Z,100138.83
2019-06-20T08:20:38.998Z,100149.08
2019-06-20T08:23:03.570Z,100152.41
2019-06-20T08:25:28.132Z,100164.14
2019-06-20T08:30:54.652Z,100168.92
2019-06-20T08:33:19.162Z,100164.14
2019-06-20T08:35:43.719Z,100158.16
2019-06-20T08:38:08.304Z,100165.84
2019-06-20T08:43:32.274Z,100167.29
2019-06-20T08:45:57.847Z,100166.45
2019-06-20T08:48:28.208Z,100170.53
2019-06-20T08:50:52.703Z,100169.66
2019-06-20T08:53:17.280Z,100172.38
2019-06-20T08:55:41.960Z,100173.83
2019-06-20T08:58:06.595Z,100174.64
2019-06-20T09:03:30.955Z,100174.41
2019-06-20T09:05:57.116Z,100172.11
2019-06-20T09:08:26.887Z,100186.03
2019-06-20T09:11:07.214Z,100180.14
2019-06-20T09:13:31.789Z,100176.47
2019-06-20T09:15:56.755Z,100175.08
2019-06-20T09:18:28.069Z,100180.05
2019-06-20T09:20:53.998Z,100185.43
2019-06-20T09:23:24.335Z,100188.05
2019-06-20T09:26:07.326Z,100189.20
2019-06-20T09:28:31.826Z,100183.55
2019-06-20T09:30:57.115Z,100181.08
2019-06-20T09:33:44.098Z,100191.52
2019-06-20T09:36:08.665Z,100196.38
2019-06-20T09:41:28.267Z,100191.48
2019-06-20T09:43:52.779Z,100200.91
2019-06-20T09:46:35.986Z,100195.09
2019-06-20T09:49:00.497Z,100184.09
2019-06-20T09:51:24.992Z,100186.38
2019-06-20T09:53:49.916Z,100181.38
2019-06-20T09:56:21.210Z,100175.12
2019-06-20T09:58:46.907Z,100185.61
2019-06-20T10:01:17.097Z,100189.33
2019-06-20T10:06:34.642Z,100198.72
2019-06-20T10:08:59.118Z,100198.95
2019-06-20T10:11:23.641Z,100202.11
2019-06-20T10:13:48.262Z,100199.94
2019-06-20T10:16:12.832Z,100116.58
2019-06-20T10:18:37.427Z,100194.86
2019-06-20T10:21:01.915Z,100199.32
2019-06-20T10:26:02.461Z,100195.42
2019-06-20T10:31:03.502Z,100195.97
2019-06-20T10:33:45.732Z,100193.70
2019-06-20T10:36:28.507Z,100194.11
2019-06-20T10:38:52.942Z,100194.11
2019-06-20T10:41:33.804Z,100189.31
2019-06-20T10:43:58.281Z,100189.31
2019-06-20T10:46:22.883Z,100194.62
2019-06-20T10:48:48.012Z,100194.77
2019-06-20T10:51:38.595Z,100196.30
2019-06-20T10:54:03.135Z,100193.77
2019-06-20T10:56:27.625Z,100203.89
2019-06-20T10:58:52.171Z,100205.05
2019-06-20T11:04:12.488Z,100195.17
2019-06-20T11:06:37.463Z,100199.63
2019-06-20T11:09:02.021Z,100200.66
2019-06-20T11:11:26.513Z,100199.09
2019-06-20T11:13:50.979Z,100200.08
2019-06-20T11:16:15.505Z,100202.91
2019-06-20T11:18:40.037Z,100211.09
2019-06-20T11:23:41.423Z,100217.32
2019-06-20T11:26:06.041Z,100218.44
2019-06-20T11:28:30.545Z,100219.97
2019-06-20T11:31:00.063Z,100225.67
2019-06-20T11:33:45.676Z,100221.70
2019-06-20T11:36:10.280Z,100224.06
2019-06-20T11:38:34.798Z,100240.02
2019-06-20T11:40:59.385Z,100227.66
2019-06-20T11:43:23.864Z,100210.80
2019-06-20T11:45:48.399Z,100228.77
2019-06-20T11:48:13.059Z,100228.50
2019-06-20T11:50:37.972Z,100223.74
2019-06-20T11:53:02.734Z,100233.93
2019-06-20T11:55:27.291Z,100233.23
2019-06-20T12:06:06.127Z,100237.97
2019-06-20T12:11:06.301Z,100240.66
2019-06-20T12:13:30.821Z,100232.28
2019-06-20T12:15:55.432Z,100241.97
2019-06-20T12:18:19.943Z,100238.39
2019-06-20T12:23:38.081Z,100220.34
2019-06-20T12:26:03.171Z,100227.89
2019-06-20T12:28:27.673Z,100233.55
2019-06-20T12:30:52.223Z,100226.14
2019-06-20T12:35:52.537Z,100224.71
2019-06-20T12:38:17.142Z,100220.92
2019-06-20T12:40:42.554Z,100215.48
2019-06-20T12:43:13.720Z,100207.75
2019-06-20T12:45:39.710Z,100209.68
2019-06-20T12:48:09.880Z,100217.63
2019-06-20T12:50:34.384Z,100207.01
2019-06-20T12:52:58.990Z,100210.97
2019-06-20T12:55:23.537Z,100222.13
2019-06-20T12:57:48.506Z,100224.94
2019-06-20T13:00:33.966Z,100234.33
2019-06-20T13:02:58.654Z,100225.42
2019-06-20T13:05:44.911Z,100228.31
2019-06-20T13:10:46.281Z,100231.37
2019-06-20T13:13:10.785Z,100236.06
2019-06-20T13:15:35.270Z,100227.02
2019-06-20T13:17:59.731Z,100239.34
2019-06-20T13:23:17.939Z,100239.15
2019-06-20T13:25:42.661Z,100232.54
2019-06-20T13:28:07.126Z,100240.34
2019-06-20T13:30:31.690Z,100240.94
2019-06-20T13:32:56.166Z,100237.89
2019-06-20T13:38:00.942Z,100233.86
2019-06-20T13:40:47.224Z,100236.98
2019-06-20T13:43:11.836Z,100228.31
2019-06-20T13:48:12.320Z,100232.78
2019-06-20T13:50:36.819Z,100232.78
2019-06-20T13:53:01.483Z,100227.17
2019-06-20T13:55:26.304Z,100216.97
2019-06-20T13:57:50.844Z,100222.91
2019-06-20T14:00:36.161Z,100226.33
2019-06-20T14:03:00.795Z,100211.50
2019-06-20T14:05:25.254Z,100214.77
2019-06-20T14:07:53.512Z,100202.23
2019-06-20T14:10:44.178Z,100210.89
2019-06-20T14:13:18.656Z,100204.95
2019-06-20T14:15:56.532Z,100206.94
2019-06-20T14:18:21.045Z,100213.42
2019-06-20T14:20:46.707Z,100214.97
2019-06-20T14:23:35.869Z,100210.58
2019-06-20T14:26:00.432Z,100204.27
2019-06-20T14:28:24.911Z,100205.66
2019-06-20T14:33:25.312Z,100213.92
2019-06-20T14:38:25.567Z,100203.91
2019-06-20T14:40:50.056Z,100202.20
2019-06-20T14:43:14.628Z,100203.88
2019-06-20T14:48:15.297Z,100207.33
2019-06-20T14:53:21.844Z,100207.75
2019-06-20T14:55:47.666Z,100221.90
2019-06-20T14:58:36.983Z,100216.85
2019-06-20T15:03:37.707Z,100217.23
2019-06-20T15:06:02.215Z,100218.86
2019-06-20T15:08:26.733Z,100219.30
2019-06-20T15:10:51.860Z,100212.72
2019-06-20T15:13:22.996Z,100214.20
2019-06-20T15:15:47.846Z,100215.09
2019-06-20T15:18:35.975Z,100224.67
2019-06-20T15:21:00.494Z,100218.14
2019-06-20T15:23:24.987Z,100221.51
2019-06-20T15:25:50.377Z,100217.38
2019-06-20T15:28:21.145Z,100218.16
2019-06-20T15:30:47.103Z,100210.63
2019-06-20T15:33:33.316Z,100207.88
2019-06-20T15:35:58.398Z,100195.58
2019-06-20T15:38:29.479Z,100203.14
2019-06-20T15:40:55.343Z,100200.97
2019-06-20T15:43:25.437Z,100203.98
2019-06-20T15:45:50.231Z,100210.22
2019-06-20T15:48:37.909Z,100212.12
2019-06-20T15:51:02.471Z,100205.78
2019-06-20T15:53:26.974Z,100202.30
2019-06-20T15:55:51.590Z,100212.12
2019-06-20T16:00:52.445Z,100214.97
2019-06-20T16:03:17.035Z,100211.45
2019-06-20T16:05:41.508Z,100210.84
2019-06-20T16:08:06.081Z,100209.39
2019-06-20T16:10:30.599Z,100207.00
2019-06-20T16:12:55.234Z,100205.90
2019-06-20T16:15:39.055Z,100214.17
2019-06-20T16:18:03.699Z,100218.81
2019-06-20T16:20:28.319Z,100208.52
2019-06-20T16:22:52.888Z,100207.41
2019-06-20T16:25:17.431Z,100207.61
2019-06-20T16:27:48.166Z,100207.30
2019-06-20T16:32:52.861Z,100212.57
2019-06-20T16:35:17.768Z,100213.26
2019-06-20T16:37:42.283Z,100219.06
2019-06-20T16:40:27.549Z,100217.69
2019-06-20T16:42:52.051Z,100213.31
2019-06-20T16:47:57.022Z,100212.47
2019-06-20T16:50:21.643Z,100219.44
2019-06-20T16:52:46.294Z,100219.41
2019-06-20T16:55:10.901Z,100211.46
2019-06-20T17:03:17.848Z,100208.94
2019-06-20T17:05:42.473Z,100210.56
2019-06-20T17:08:07.125Z,100214.77
2019-06-20T17:10:31.654Z,100216.93
2019-06-20T17:12:56.231Z,100213.89
2019-06-20T17:18:00.958Z,100221.01
2019-06-20T17:20:25.583Z,100229.61
2019-06-20T17:25:26.795Z,100237.00
2019-06-20T17:27:51.302Z,100242.31
2019-06-20T17:33:15.222Z,100241.66
2019-06-20T17:35:39.819Z,100234.67
2019-06-20T17:38:04.504Z,100231.95
2019-06-20T17:43:05.404Z,100230.97
2019-06-20T17:45:29.966Z,100232.28
2019-06-20T17:47:54.492Z,100221.13
2019-06-20T17:50:19.228Z,100230.00
2019-06-20T17:52:43.830Z,100237.90
2019-06-20T17:58:07.786Z,100233.75
2019-06-20T18:03:08.952Z,100232.20
2019-06-20T18:05:33.436Z,100239.16
2019-06-20T18:07:57.984Z,100253.83
2019-06-20T18:10:22.627Z,100258.63
2019-06-20T18:12:47.165Z,100244.98
2019-06-20T18:15:33.962Z,100246.28
2019-06-20T18:17:58.603Z,100259.17
2019-06-20T18:20:43.898Z,100264.33
2019-06-20T18:23:08.428Z,100258.39
2019-06-20T18:25:33.009Z,100255.84
2019-06-20T18:27:57.469Z,100267.52
2019-06-20T18:30:43.019Z,100270.32
2019-06-20T18:33:07.577Z,100272.04
2019-06-20T18:38:08.451Z,100280.69
2019-06-20T18:40:32.956Z,100283.37
2019-06-20T18:42:57.437Z,100286.55
2019-06-20T18:47:58.142Z,100290.09
2019-06-20T18:52:58.319Z,100299.98
2019-06-20T18:55:22.808Z,100302.33
2019-06-20T18:57:47.413Z,100298.44
2019-06-20T19:03:10.777Z,100295.74
2019-06-20T19:05:35.341Z,100302.95
2019-06-20T19:08:05.904Z,100308.37
2019-06-20T19:10:33.471Z,100312.09
2019-06-20T19:13:01.698Z,100318.87
2019-06-20T19:15:26.528Z,100322.19
2019-06-20T19:17:51.033Z,100324.62
2019-06-20T19:20:15.706Z,100328.34
2019-06-20T19:22:40.215Z,100326.48
2019-06-20T19:25:25.537Z,100331.83
2019-06-20T19:43:08.940Z,100372.47
2019-06-20T19:45:51.446Z,100376.03
2019-06-20T19:48:16.058Z,100374.47
2019-06-20T19:50:42.658Z,100376.54
2019-06-20T19:53:07.681Z,100376.54
2019-06-20T19:55:32.206Z,100382.31
2019-06-20T19:57:56.808Z,100374.09
2019-06-20T20:00:21.610Z,100379.45
2019-06-20T20:02:46.200Z,100382.44
2019-06-20T20:05:19.020Z,100379.21
2019-06-20T20:07:37.715Z,100379.21
2019-06-20T20:11:00.717Z,100379.45
2019-06-20T20:12:34.850Z,100378.20
2019-06-20T20:14:59.315Z,100376.45
2019-06-20T20:17:24.139Z,100364.30
2019-06-20T20:19:48.606Z,100375.64
2019-06-20T20:22:13.095Z,100371.92
2019-06-20T20:24:37.889Z,100370.07
2019-06-20T20:27:02.443Z,100369.27
2019-06-20T20:29:27.075Z,100382.41
2019-06-20T20:31:51.790Z,100398.23
2019-06-20T20:34:16.290Z,100407.42
2019-06-20T20:36:41.800Z,100408.97
2019-06-20T20:39:07.987Z,100435.86
2019-06-20T20:41:32.556Z,100458.41
2019-06-20T20:43:57.071Z,100462.55
2019-06-20T20:46:21.616Z,100483.64
2019-06-20T20:48:46.773Z,100481.01
2019-06-20T20:51:11.673Z,100467.14
2019-06-20T20:53:36.144Z,100422.73
2019-06-20T20:56:02.466Z,100483.88
2019-06-20T20:58:26.833Z,100483.10
2019-06-20T21:01:06.068Z,100472.33
2019-06-20T21:03:30.584Z,100460.77
2019-06-20T21:05:55.069Z,100457.16
2019-06-20T21:08:19.575Z,100465.34
2019-06-20T21:10:45.275Z,100450.98
2019-06-20T21:13:09.828Z,100449.91
2019-06-20T21:15:34.283Z,100464.59
2019-06-20T21:17:58.782Z,100462.01
2019-06-20T21:20:23.386Z,100461.71
2019-06-20T21:22:47.881Z,100458.61
2019-06-20T21:25:13.208Z,100472.52
2019-06-20T21:27:37.704Z,100457.61
2019-06-20T21:30:02.265Z,100456.59
2019-06-20T21:32:26.814Z,100457.11
2019-06-20T21:34:51.301Z,100461.99
2019-06-20T21:37:15.764Z,100463.56
2019-06-20T21:39:40.340Z,100464.59
2019-06-20T21:42:04.889Z,100464.88
2019-06-20T21:44:29.392Z,100463.58
2019-06-20T21:46:53.866Z,100456.88
2019-06-20T21:49:18.373Z,100458.41
2019-06-20T21:51:44.738Z,100464.84
2019-06-20T21:54:09.234Z,100468.71
2019-06-20T21:56:33.777Z,100463.58
2019-06-20T21:58:58.261Z,100465.12
2019-06-20T22:01:22.862Z,100473.59
2019-06-20T22:03:47.410Z,100467.98
2019-06-20T22:06:23.333Z,100475.01
2019-06-20T22:08:38.141Z,100473.84
2019-06-20T22:11:02.686Z,100474.25
2019-06-20T22:13:27.472Z,100481.71
2019-06-20T22:15:51.893Z,100484.16
2019-06-20T22:18:16.408Z,100488.87
2019-06-20T22:20:40.945Z,100491.88
2019-06-20T22:23:05.851Z,100482.91
2019-06-20T22:25:30.492Z,100490.22
2019-06-20T22:27:55.047Z,100501.08
2019-06-20T22:30:22.596Z,100487.31
2019-06-20T22:32:47.215Z,100504.33
2019-06-20T22:35:12.086Z,100506.14
2019-06-20T22:37:36.615Z,100515.03
2019-06-20T22:40:01.108Z,100513.34
2019-06-20T22:42:25.572Z,100529.69
2019-06-20T22:44:50.140Z,100534.19
2019-06-20T22:47:14.607Z,100527.67
2019-06-20T22:49:39.113Z,100531.84
2019-06-20T22:52:03.562Z,100536.50
2019-06-20T22:54:28.056Z,100542.50
2019-06-20T22:56:52.561Z,100538.48
2019-06-20T22:59:17.053Z,100543.08
2019-06-20T23:01:41.512Z,100546.13
2019-06-20T23:04:06.024Z,100541.92
2019-06-20T23:06:30.567Z,100547.99
2019-06-20T23:08:55.094Z,100556.07
2019-06-20T23:11:19.585Z,100553.33
2019-06-20T23:13:44.113Z,100561.19
2019-06-20T23:16:08.647Z,100561.87
2019-06-20T23:18:33.155Z,100563.57
2019-06-20T23:21:04.643Z,100563.30
2019-06-20T23:23:23.897Z,100563.57
2019-06-20T23:25:50.059Z,100561.69
2019-06-20T23:28:14.596Z,100562.86
2019-06-20T23:30:39.487Z,100566.84
2019-06-20T23:33:04.107Z,100566.55
2019-06-20T23:35:28.606Z,100567.42
2019-06-20T23:37:53.086Z,100570.41
2019-06-20T23:40:18.672Z,100565.67
2019-06-20T23:42:43.109Z,100564.25
2019-06-20T23:45:08.449Z,100567.73
2019-06-20T23:47:32.952Z,100569.63
2019-06-20T23:49:57.605Z,100571.81
2019-06-20T23:52:26.647Z,100570.80
2019-06-20T23:54:51.114Z,100572.09
2019-06-20T23:57:15.623Z,100572.64
2019-06-20T23:59:40.159Z,100574.34
